Terminal Aerodrome Forecast
Issued by NWS Charleston, WV

Current Version | Previous Version | Text Only | Print | Product List | Glossary Off
Versions: 1 2 3 4 5 6 7 8 9 10 11 12 13 14 15 16 17 18 19 20 21 22 23 24 25 26

000
FTUS41 KRLX 132338
TAFEKN
TAF
KEKN 132338Z 1400/1424 36003KT P6SM -RA OVC008
     FM140300 02002KT 4SM -RA BR OVC006
     FM140600 13002KT 2SM -RA BR OVC005
     FM140900 14003KT 1SM -RA BR OVC003
     FM142000 25003KT 3SM -RA BR OVC006=

USA.gov is the U.S. government's official web portal to all federal, state and local government web resources and services.